Ewart, Iowa
Current Conditions -  °F | °C
As of 8:55 PM on Saturday 25 Oct 2014 (Local Time) from KGGI Reporting Station
Clear Clear  
Wind Chill: 52°   Ceiling: Unl
Heat Index: 52°   Visibility: 10mi
Dew Point: 36°   Wind: 5mph
Humidity: 56%   Direction: 330°NNW
Pressure: 30.06"   Gusts: NA
Location:  41.605°N, 92.5043°W
Report Text: KGGI 260155Z AUTO 33004KT 10SM CLR 11/02 A3006 RMK AO2 T01100024
Loading
Personal Weather Stations






























Interactive Weather Map
Tropical Storm Tracking
New forecast layout! Learn more

10-Day Weather Forecast

Advertisements
Track Severe Weather on mobile